Time;durP1;ratioP1;P1;durP2;ratioP2;P2;SDS_P1;SDS_P2;PMS_P1;PMS_P2;Temp;Humidity;BMP_temperature;BMP_pressure;BME280_temperature;BME280_humidity;BME280_pressure;Samples;Min_cycle;Max_cycle;Signal;HPM_P1;HPM_P2
2023/03/19 00:01:55;;;;;;;20.10;9.02;;;;;;;;;;5090760;28;20114;-71
2023/03/19 00:04:22;;;;;;;23.23;10.43;;;;;;;;;;5087619;28;20008;-71
2023/03/19 00:06:47;;;;;;;22.17;10.13;;;;;;;;;;5090301;28;20016;-71
2023/03/19 00:09:12;;;;;;;22.63;10.95;;;;;;;;;;5089480;28;20110;-73
2023/03/19 00:11:38;;;;;;;23.23;10.48;;;;;;;;;;5090572;28;20020;-71
2023/03/19 00:14:04;;;;;;;31.05;12.20;;;;;;;;;;5073971;28;20028;-72
2023/03/19 00:16:29;;;;;;;24.77;11.88;;;;;;;;;;5089004;28;20098;-72
2023/03/19 00:18:55;;;;;;;24.88;11.88;;;;;;;;;;5090327;28;20069;-71
2023/03/19 00:21:20;;;;;;;27.80;11.40;;;;;;;;;;5090493;28;20115;-71
2023/03/19 00:23:46;;;;;;;19.65;9.35;;;;;;;;;;5090496;28;20020;-72
2023/03/19 00:26:11;;;;;;;21.08;9.15;;;;;;;;;;5090571;28;20467;-72
2023/03/19 00:28:36;;;;;;;19.25;9.38;;;;;;;;;;5090120;28;20582;-71
2023/03/19 00:31:09;;;;;;;21.90;9.38;;;;;;;;;;5081583;28;20051;-71
2023/03/19 00:33:34;;;;;;;22.27;10.63;;;;;;;;;;5084001;28;20032;-72
2023/03/19 00:36:00;;;;;;;24.67;10.15;;;;;;;;;;5090170;28;20027;-72
2023/03/19 00:38:25;;;;;;;20.73;10.65;;;;;;;;;;5089895;28;20032;-72
2023/03/19 00:40:50;;;;;;;21.15;9.57;;;;;;;;;;5090232;28;20016;-72
2023/03/19 00:43:16;;;;;;;28.15;11.25;;;;;;;;;;5089851;28;20042;-72
2023/03/19 00:45:41;;;;;;;21.17;11.93;;;;;;;;;;5087055;28;20016;-72
2023/03/19 00:48:06;;;;;;;24.60;10.93;;;;;;;;;;5088993;28;20055;-73
2023/03/19 00:50:32;;;;;;;16.80;9.70;;;;;;;;;;5089524;28;20069;-72
2023/03/19 00:52:57;;;;;;;22.52;9.35;;;;;;;;;;5090217;28;20020;-72
2023/03/19 00:55:24;;;;;;;17.77;9.35;;;;;;;;;;5089943;28;20473;-72
2023/03/19 00:57:49;;;;;;;29.02;9.93;;;;;;;;;;5089978;28;20095;-72
2023/03/19 01:00:15;;;;;;;22.35;9.15;;;;;;;;;;5088142;28;20441;-73
2023/03/19 01:02:43;;;;;;;19.85;8.82;;;;;;;;;;5080114;28;20470;-73
2023/03/19 01:05:08;;;;;;;17.65;8.95;;;;;;;;;;5085257;28;20024;-72
2023/03/19 01:07:33;;;;;;;19.05;9.43;;;;;;;;;;5075051;28;20401;-71
2023/03/19 01:09:58;;;;;;;17.15;8.07;;;;;;;;;;5089545;28;20117;-71
2023/03/19 01:12:24;;;;;;;18.25;8.20;;;;;;;;;;5089614;28;20457;-72
2023/03/19 01:14:49;;;;;;;18.08;8.65;;;;;;;;;;5089594;28;20028;-73
2023/03/19 01:17:14;;;;;;;18.23;9.25;;;;;;;;;;5088920;28;20917;-71
2023/03/19 01:19:39;;;;;;;18.58;8.85;;;;;;;;;;5089473;28;20061;-71
2023/03/19 01:22:04;;;;;;;22.35;9.15;;;;;;;;;;5089667;28;20108;-71
2023/03/19 01:24:30;;;;;;;19.10;8.85;;;;;;;;;;5089586;28;20497;-72
2023/03/19 01:26:59;;;;;;;17.33;8.80;;;;;;;;;;5070848;28;20111;-72
2023/03/19 01:29:24;;;;;;;24.67;9.48;;;;;;;;;;5089782;28;20024;-72
2023/03/19 01:31:50;;;;;;;20.23;9.63;;;;;;;;;;5089730;28;20062;-73
2023/03/19 01:34:15;;;;;;;17.77;9.07;;;;;;;;;;5089092;28;20492;-72
2023/03/19 01:36:41;;;;;;;21.33;10.00;;;;;;;;;;5089071;28;20058;-72
2023/03/19 01:39:06;;;;;;;28.10;10.23;;;;;;;;;;5089381;28;20020;-69
2023/03/19 01:41:31;;;;;;;20.38;10.18;;;;;;;;;;5089394;28;20020;-71
2023/03/19 01:43:56;;;;;;;25.83;10.20;;;;;;;;;;5088938;28;20031;-72
2023/03/19 01:46:33;;;;;;;18.55;8.95;;;;;;;;;;5086602;28;20029;-70
2023/03/19 01:49:05;;;;;;;19.90;9.80;;;;;;;;;;5085656;28;20027;-71
2023/03/19 01:51:33;;;;;;;19.52;9.18;;;;;;;;;;5089284;28;20521;-71
2023/03/19 01:54:00;;;;;;;17.40;8.82;;;;;;;;;;5089663;28;20028;-70
2023/03/19 01:56:32;;;;;;;17.20;9.38;;;;;;;;;;5089003;28;20036;-70
2023/03/19 01:59:00;;;;;;;21.90;9.50;;;;;;;;;;5089352;28;20020;-70
2023/03/19 02:01:26;;;;;;;22.20;10.82;;;;;;;;;;5089542;28;20024;-70
2023/03/19 02:03:52;;;;;;;26.60;10.30;;;;;;;;;;5079378;28;20019;-70
2023/03/19 02:06:20;;;;;;;24.73;9.75;;;;;;;;;;5077741;28;20032;-72
2023/03/19 02:08:46;;;;;;;22.10;13.05;;;;;;;;;;5090028;28;20020;-72
2023/03/19 02:11:11;;;;;;;31.42;18.30;;;;;;;;;;5090965;28;20020;-72
2023/03/19 02:13:37;;;;;;;34.63;18.10;;;;;;;;;;5089802;28;20496;-72
2023/03/19 02:16:03;;;;;;;21.55;12.07;;;;;;;;;;5089302;28;20460;-73
2023/03/19 02:18:29;;;;;;;21.73;10.68;;;;;;;;;;5089471;28;20099;-71
2023/03/19 02:21:04;;;;;;;24.17;9.68;;;;;;;;;;5090116;28;20032;-73
2023/03/19 02:23:38;;;;;;;24.65;9.55;;;;;;;;;;5090903;28;20016;-72
2023/03/19 02:26:07;;;;;;;21.08;9.40;;;;;;;;;;5090159;28;20031;-70
2023/03/19 02:28:32;;;;;;;;;;;;;;;;;;5089678;28;20020;-70
2023/03/19 02:30:57;;;;;;;22.60;9.27;;;;;;;;;;5089489;28;20353;-71
2023/03/19 02:33:23;;;;;;;18.15;9.25;;;;;;;;;;5088481;28;20035;-70
2023/03/19 02:35:50;;;;;;;19.10;9.57;;;;;;;;;;5088783;28;20021;-71
2023/03/19 02:38:15;;;;;;;20.55;9.45;;;;;;;;;;5088601;28;20446;-70
2023/03/19 02:40:50;;;;;;;19.17;8.90;;;;;;;;;;5092005;28;20058;-72
2023/03/19 02:43:15;;;;;;;21.98;9.75;;;;;;;;;;5091108;28;20065;-72
2023/03/19 02:45:41;;;;;;;29.85;9.98;;;;;;;;;;5090929;28;20020;-72
2023/03/19 02:48:06;;;;;;;37.42;10.85;;;;;;;;;;5093189;28;20027;-73
2023/03/19 02:50:31;;;;;;;22.77;9.77;;;;;;;;;;5094257;28;20055;-72
2023/03/19 02:52:57;;;;;;;17.88;9.60;;;;;;;;;;5092776;28;20050;-72
2023/03/19 02:55:22;;;;;;;22.25;10.38;;;;;;;;;;5092014;28;20054;-71
2023/03/19 02:57:47;;;;;;;18.10;8.95;;;;;;;;;;5091237;28;20494;-71
2023/03/19 03:00:13;;;;;;;22.52;8.98;;;;;;;;;;5092372;28;20051;-71
2023/03/19 03:02:38;;;;;;;14.93;8.15;;;;;;;;;;5091966;28;20038;-72
2023/03/19 03:05:05;;;;;;;20.23;8.43;;;;;;;;;;5084135;28;20019;-70
2023/03/19 03:07:30;;;;;;;23.35;8.63;;;;;;;;;;5085007;28;20123;-71
2023/03/19 03:09:55;;;;;;;21.77;8.85;;;;;;;;;;5091690;28;20145;-71
2023/03/19 03:12:21;;;;;;;21.08;8.43;;;;;;;;;;5091945;28;20012;-70
2023/03/19 03:14:46;;;;;;;19.67;8.13;;;;;;;;;;5092114;28;20020;-68
2023/03/19 03:17:12;;;;;;;17.75;9.05;;;;;;;;;;5091557;28;20446;-71
2023/03/19 03:19:37;;;;;;;17.58;8.35;;;;;;;;;;5091106;28;20081;-69
2023/03/19 03:22:02;;;;;;;22.30;8.50;;;;;;;;;;5091832;28;20100;-70
2023/03/19 03:24:28;;;;;;;22.05;9.23;;;;;;;;;;5078374;28;20095;-70
2023/03/19 03:26:53;;;;;;;22.73;9.15;;;;;;;;;;5092188;28;20035;-70
2023/03/19 03:29:18;;;;;;;16.55;8.85;;;;;;;;;;5091513;28;20028;-72
2023/03/19 03:31:43;;;;;;;20.33;8.88;;;;;;;;;;5091883;28;20085;-70
2023/03/19 03:34:09;;;;;;;17.00;8.52;;;;;;;;;;5091077;28;20367;-71
2023/03/19 03:36:34;;;;;;;16.08;8.25;;;;;;;;;;5090710;28;20018;-71
2023/03/19 03:38:59;;;;;;;17.17;8.55;;;;;;;;;;5091265;28;20146;-71
2023/03/19 03:41:25;;;;;;;18.17;8.13;;;;;;;;;;5091133;28;20028;-71
2023/03/19 03:43:50;;;;;;;19.27;9.23;;;;;;;;;;5091162;28;20020;-72
2023/03/19 03:46:16;;;;;;;24.70;10.07;;;;;;;;;;5086659;28;20474;-72
2023/03/19 03:48:41;;;;;;;16.55;8.77;;;;;;;;;;5090038;28;20016;-72
2023/03/19 03:51:07;;;;;;;23.80;9.25;;;;;;;;;;5090995;28;20054;-71
2023/03/19 03:53:32;;;;;;;15.57;8.27;;;;;;;;;;5091257;28;20020;-71
2023/03/19 03:55:57;;;;;;;13.80;7.65;;;;;;;;;;5090878;28;20043;-70
2023/03/19 03:58:22;;;;;;;16.63;8.23;;;;;;;;;;5074583;28;20485;-69
2023/03/19 04:00:48;;;;;;;20.92;8.07;;;;;;;;;;5091355;28;20020;-70
2023/03/19 04:03:13;;;;;;;19.65;9.63;;;;;;;;;;5086087;28;20047;-69
2023/03/19 04:05:38;;;;;;;30.38;13.57;;;;;;;;;;5078238;28;20387;-71
2023/03/19 04:08:04;;;;;;;26.52;13.93;;;;;;;;;;5088430;28;20381;-68
2023/03/19 04:10:30;;;;;;;25.73;12.27;;;;;;;;;;5072664;28;20031;-69
2023/03/19 04:12:55;;;;;;;19.40;9.98;;;;;;;;;;5090513;28;20381;-69
2023/03/19 04:15:20;;;;;;;18.85;9.20;;;;;;;;;;5090669;28;20027;-69
2023/03/19 04:17:46;;;;;;;19.77;8.68;;;;;;;;;;5089976;28;20020;-71
2023/03/19 04:20:12;;;;;;;26.55;8.38;;;;;;;;;;5090299;28;20077;-71
2023/03/19 04:22:37;;;;;;;18.90;8.27;;;;;;;;;;5090229;28;20529;-71
2023/03/19 04:25:03;;;;;;;18.02;7.47;;;;;;;;;;5090361;28;20020;-71
2023/03/19 04:27:29;;;;;;;19.45;8.55;;;;;;;;;;5090100;28;20047;-72
2023/03/19 04:29:54;;;;;;;17.05;7.72;;;;;;;;;;5090794;28;20027;-71
2023/03/19 04:32:19;;;;;;;15.80;8.57;;;;;;;;;;5090323;28;20023;-70
2023/03/19 04:34:45;;;;;;;19.42;9.25;;;;;;;;;;5090351;28;20030;-72
2023/03/19 04:37:11;;;;;;;16.42;8.13;;;;;;;;;;5089844;28;20020;-71
2023/03/19 04:39:36;;;;;;;15.40;7.55;;;;;;;;;;5090216;28;20028;-71
2023/03/19 04:42:03;;;;;;;20.55;9.05;;;;;;;;;;5090573;28;20367;-71
2023/03/19 04:44:28;;;;;;;19.70;9.25;;;;;;;;;;5090112;28;20351;-70
2023/03/19 04:46:53;;;;;;;21.50;8.98;;;;;;;;;;5088843;28;20034;-71
2023/03/19 04:49:19;;;;;;;20.25;8.50;;;;;;;;;;5090000;28;20492;-71
2023/03/19 04:51:44;;;;;;;16.05;8.45;;;;;;;;;;5086640;28;20442;-71
2023/03/19 04:54:10;;;;;;;16.95;8.43;;;;;;;;;;5090106;28;20024;-70
2023/03/19 04:56:36;;;;;;;17.13;8.25;;;;;;;;;;5090447;28;20622;-69
2023/03/19 04:59:02;;;;;;;28.52;10.52;;;;;;;;;;5108042;22;20079;-63
2023/03/19 05:01:33;;;;;;;16.88;8.45;;;;;;;;;;5088405;28;20051;-64
2023/03/19 05:03:58;;;;;;;22.40;8.95;;;;;;;;;;5075440;28;20119;-65
2023/03/19 05:06:25;;;;;;;22.77;9.50;;;;;;;;;;5088430;28;20553;-66
2023/03/19 05:08:51;;;;;;;17.15;9.13;;;;;;;;;;5070284;28;20116;-66
2023/03/19 05:11:16;;;;;;;20.80;9.75;;;;;;;;;;5067157;28;20108;-66
2023/03/19 05:13:41;;;;;;;24.23;10.20;;;;;;;;;;5068657;28;20058;-65
2023/03/19 05:16:06;;;;;;;19.20;9.50;;;;;;;;;;5068944;28;20113;-63
2023/03/19 05:18:32;;;;;;;19.20;8.95;;;;;;;;;;5068350;28;20021;-65
2023/03/19 05:20:58;;;;;;;17.17;9.05;;;;;;;;;;5068533;28;20359;-64
2023/03/19 05:23:23;;;;;;;14.55;8.48;;;;;;;;;;5068782;28;20013;-68
2023/03/19 05:25:48;;;;;;;23.08;9.52;;;;;;;;;;5068976;28;20024;-67
2023/03/19 05:28:14;;;;;;;21.52;9.40;;;;;;;;;;5068290;28;20044;-65
2023/03/19 05:30:39;;;;;;;18.80;8.75;;;;;;;;;;5069087;28;20622;-66
2023/03/19 05:33:05;;;;;;;22.15;9.02;;;;;;;;;;5067904;28;20055;-66
2023/03/19 05:35:30;;;;;;;17.55;8.45;;;;;;;;;;5068266;28;20484;-67
2023/03/19 05:37:56;;;;;;;23.20;8.23;;;;;;;;;;5068272;28;20035;-66
2023/03/19 05:40:22;;;;;;;19.23;10.25;;;;;;;;;;5068325;28;20417;-65
2023/03/19 05:42:47;;;;;;;16.48;8.57;;;;;;;;;;5068449;28;20071;-64
2023/03/19 05:45:12;;;;;;;19.75;8.93;;;;;;;;;;5066982;28;20511;-67
2023/03/19 05:47:38;;;;;;;20.02;9.25;;;;;;;;;;5062826;28;20520;-67
2023/03/19 05:50:04;;;;;;;13.90;8.32;;;;;;;;;;5068319;28;20021;-66
2023/03/19 05:52:29;;;;;;;15.90;8.32;;;;;;;;;;5068326;28;20016;-66
2023/03/19 05:54:55;;;;;;;19.17;8.88;;;;;;;;;;5066476;28;20038;-66
2023/03/19 05:57:20;;;;;;;22.25;9.40;;;;;;;;;;5067839;28;20028;-67
2023/03/19 05:59:45;;;;;;;19.10;8.88;;;;;;;;;;5068376;28;20059;-67
2023/03/19 06:02:11;;;;;;;18.85;8.43;;;;;;;;;;5068097;28;20100;-66
2023/03/19 06:04:36;;;;;;;18.08;8.68;;;;;;;;;;5054222;28;20101;-65
2023/03/19 06:07:01;;;;;;;21.10;8.13;;;;;;;;;;5058668;28;20378;-67
2023/03/19 06:09:26;;;;;;;25.08;8.55;;;;;;;;;;5067896;28;20034;-66
2023/03/19 06:11:52;;;;;;;21.38;8.77;;;;;;;;;;5067992;28;20031;-67
2023/03/19 06:14:17;;;;;;;17.20;8.88;;;;;;;;;;5068902;28;20024;-65
2023/03/19 06:16:42;;;;;;;19.48;8.68;;;;;;;;;;5071664;28;20021;-67
2023/03/19 06:19:08;;;;;;;18.73;8.18;;;;;;;;;;5071277;28;20052;-68
2023/03/19 06:21:33;;;;;;;16.50;8.27;;;;;;;;;;5070283;28;20334;-66
2023/03/19 06:23:58;;;;;;;19.63;7.80;;;;;;;;;;5071532;28;20458;-66
2023/03/19 06:26:24;;;;;;;19.20;9.50;;;;;;;;;;5071127;28;20024;-66
2023/03/19 06:28:49;;;;;;;16.50;9.15;;;;;;;;;;5071185;28;20025;-65
2023/03/19 06:31:15;;;;;;;18.67;7.95;;;;;;;;;;5071892;28;20406;-64
2023/03/19 06:33:40;;;;;;;18.13;7.88;;;;;;;;;;5069722;28;20506;-65
2023/03/19 06:36:06;;;;;;;18.80;8.65;;;;;;;;;;5067758;28;20482;-66
2023/03/19 06:38:32;;;;;;;19.73;7.25;;;;;;;;;;5065501;28;20023;-66
2023/03/19 06:40:57;;;;;;;17.65;7.75;;;;;;;;;;5071511;28;20115;-65
2023/03/19 06:43:22;;;;;;;19.75;7.03;;;;;;;;;;5071473;28;20518;-66
2023/03/19 06:45:47;;;;;;;27.23;9.30;;;;;;;;;;5070055;28;20021;-65
2023/03/19 06:48:13;;;;;;;16.02;8.30;;;;;;;;;;5070975;28;20055;-67
2023/03/19 06:50:38;;;;;;;16.35;8.07;;;;;;;;;;5071111;28;20020;-67
2023/03/19 06:53:03;;;;;;;16.38;7.80;;;;;;;;;;5070910;28;20426;-65
2023/03/19 06:55:29;;;;;;;18.70;8.98;;;;;;;;;;5071175;28;20569;-66
2023/03/19 06:57:55;;;;;;;22.40;8.88;;;;;;;;;;5070601;28;20048;-65
2023/03/19 07:00:20;;;;;;;20.23;8.27;;;;;;;;;;5065977;28;20036;-66
2023/03/19 07:02:46;;;;;;;22.33;8.00;;;;;;;;;;5066561;28;20036;-66
2023/03/19 07:05:11;;;;;;;17.42;8.15;;;;;;;;;;5068953;28;20021;-65
2023/03/19 07:07:36;;;;;;;16.65;7.13;;;;;;;;;;5070907;28;20081;-65
2023/03/19 07:10:02;;;;;;;22.58;7.70;;;;;;;;;;5070753;28;20120;-66
2023/03/19 07:12:28;;;;;;;20.17;8.65;;;;;;;;;;5070605;28;20023;-66
2023/03/19 07:14:54;;;;;;;17.77;7.63;;;;;;;;;;5071042;28;20021;-63
2023/03/19 07:17:20;;;;;;;18.52;8.25;;;;;;;;;;5071191;28;20021;-66
2023/03/19 07:19:45;;;;;;;24.35;8.73;;;;;;;;;;5070892;28;20047;-66
2023/03/19 07:22:10;;;;;;;28.60;8.38;;;;;;;;;;5071118;28;20020;-67
2023/03/19 07:24:35;;;;;;;15.00;8.23;;;;;;;;;;5063949;28;20411;-66
2023/03/19 07:27:01;;;;;;;18.40;7.93;;;;;;;;;;5065388;28;20155;-66
2023/03/19 07:29:27;;;;;;;17.10;7.60;;;;;;;;;;5070919;28;20198;-66
2023/03/19 07:31:52;;;;;;;18.33;7.82;;;;;;;;;;5071206;28;20534;-65
2023/03/19 07:34:17;;;;;;;13.43;7.40;;;;;;;;;;5070995;28;20017;-66
2023/03/19 07:36:42;;;;;;;22.35;7.57;;;;;;;;;;5070449;28;20074;-61
2023/03/19 07:39:08;;;;;;;23.55;8.02;;;;;;;;;;5070974;28;20016;-66
2023/03/19 07:41:33;;;;;;;15.40;7.57;;;;;;;;;;5069789;28;20058;-63
2023/03/19 07:43:58;;;;;;;14.60;6.63;;;;;;;;;;5064295;28;20047;-65
2023/03/19 07:46:23;;;;;;;16.02;6.82;;;;;;;;;;5061760;28;20025;-66
2023/03/19 07:48:48;;;;;;;14.82;7.28;;;;;;;;;;5066706;28;20028;-67
2023/03/19 07:51:14;;;;;;;13.50;7.18;;;;;;;;;;5070212;28;20049;-64
2023/03/19 07:53:39;;;;;;;16.65;7.65;;;;;;;;;;5068755;28;20595;-67
2023/03/19 07:56:04;;;;;;;14.25;7.32;;;;;;;;;;5069816;28;20100;-64
2023/03/19 07:58:30;;;;;;;13.93;7.25;;;;;;;;;;5067934;28;20498;-66
2023/03/19 08:00:55;;;;;;;19.75;6.63;;;;;;;;;;5064728;28;20033;-64
2023/03/19 08:03:20;;;;;;;21.25;7.43;;;;;;;;;;5062978;28;20027;-64
2023/03/19 08:05:48;;;;;;;12.52;6.07;;;;;;;;;;5063437;28;20085;-66
2023/03/19 08:08:14;;;;;;;19.67;7.38;;;;;;;;;;5063912;28;20500;-65
2023/03/19 08:10:39;;;;;;;14.23;7.78;;;;;;;;;;5063721;28;20039;-65
2023/03/19 08:13:04;;;;;;;14.10;6.55;;;;;;;;;;5069326;28;20016;-66
2023/03/19 08:15:30;;;;;;;14.25;6.55;;;;;;;;;;5069580;28;20454;-65
2023/03/19 08:18:02;;;;;;;12.18;6.10;;;;;;;;;;5069070;28;20024;-66
2023/03/19 08:20:28;;;;;;;20.58;7.63;;;;;;;;;;5069216;28;20597;-68
2023/03/19 08:22:53;;;;;;;21.15;7.10;;;;;;;;;;5068354;28;20008;-67
2023/03/19 08:25:18;;;;;;;13.20;6.13;;;;;;;;;;5066965;28;20029;-66
2023/03/19 08:27:43;;;;;;;16.65;6.55;;;;;;;;;;5069557;28;20104;-68
2023/03/19 08:30:09;;;;;;;16.15;6.03;;;;;;;;;;5069885;28;20020;-66
2023/03/19 08:32:35;;;;;;;16.15;6.60;;;;;;;;;;5068744;28;20046;-66
2023/03/19 08:35:00;;;;;;;12.70;6.60;;;;;;;;;;5069798;28;20035;-63
2023/03/19 08:37:26;;;;;;;12.88;6.40;;;;;;;;;;5066104;28;20082;-67
2023/03/19 08:39:51;;;;;;;17.88;6.93;;;;;;;;;;5068694;28;20414;-64
2023/03/19 08:42:17;;;;;;;12.55;6.13;;;;;;;;;;5069220;28;20073;-67
2023/03/19 08:44:42;;;;;;;21.20;7.00;;;;;;;;;;5063540;28;20482;-67
2023/03/19 08:47:07;;;;;;;14.48;6.82;;;;;;;;;;5066380;28;20020;-67
2023/03/19 08:49:33;;;;;;;24.02;6.30;;;;;;;;;;5069293;28;20355;-64
2023/03/19 08:51:58;;;;;;;14.60;6.90;;;;;;;;;;5069055;28;20016;-69
2023/03/19 08:54:23;;;;;;;13.68;6.80;;;;;;;;;;5068458;28;20016;-66
2023/03/19 08:56:49;;;;;;;18.23;6.65;;;;;;;;;;5068269;28;20023;-66
2023/03/19 08:59:15;;;;;;;23.30;6.88;;;;;;;;;;5068156;28;20032;-67
2023/03/19 09:01:40;;;;;;;18.35;6.88;;;;;;;;;;5068755;28;20412;-64
2023/03/19 09:04:06;;;;;;;15.63;7.13;;;;;;;;;;5059249;28;20029;-68
2023/03/19 09:06:31;;;;;;;19.88;7.07;;;;;;;;;;5057498;28;20100;-68
2023/03/19 09:08:56;;;;;;;16.65;6.28;;;;;;;;;;5069078;28;20025;-67
2023/03/19 09:11:25;;;;;;;15.45;6.32;;;;;;;;;;5069110;28;20024;-69
2023/03/19 09:13:53;;;;;;;13.40;7.05;;;;;;;;;;5068419;28;20031;-65
2023/03/19 09:16:18;;;;;;;12.70;6.35;;;;;;;;;;5072849;28;20385;-67
2023/03/19 09:18:44;;;;;;;11.32;5.82;;;;;;;;;;5068605;28;20024;-67
2023/03/19 09:21:12;;;;;;;15.07;6.43;;;;;;;;;;5069287;28;20030;-63
2023/03/19 09:23:37;;;;;;;18.65;6.72;;;;;;;;;;5068374;28;20047;-67
2023/03/19 09:26:03;;;;;;;12.00;6.55;;;;;;;;;;5068453;28;20052;-66
2023/03/19 09:28:28;;;;;;;13.40;5.88;;;;;;;;;;5068514;28;20044;-68
2023/03/19 09:30:53;;;;;;;12.93;5.53;;;;;;;;;;5068228;28;20032;-67
2023/03/19 09:33:20;;;;;;;13.90;6.32;;;;;;;;;;5069313;28;20334;-67
2023/03/19 09:35:49;;;;;;;19.80;5.90;;;;;;;;;;5068459;28;20511;-68
2023/03/19 09:38:15;;;;;;;12.10;5.15;;;;;;;;;;5068817;28;20540;-67
2023/03/19 09:40:41;;;;;;;11.98;5.93;;;;;;;;;;5069585;28;20052;-65
2023/03/19 09:43:19;;;;;;;14.60;5.53;;;;;;;;;;5068779;28;20067;-66
2023/03/19 09:45:45;;;;;;;13.63;4.90;;;;;;;;;;5066075;28;20016;-66
2023/03/19 09:48:16;;;;;;;9.98;4.93;;;;;;;;;;5066163;28;20486;-64
2023/03/19 09:50:42;;;;;;;11.68;5.50;;;;;;;;;;5052668;28;20033;-65
2023/03/19 09:53:14;;;;;;;11.95;5.35;;;;;;;;;;5066077;28;20024;-67
2023/03/19 09:55:41;;;;;;;13.40;5.50;;;;;;;;;;5070905;28;20062;-69
2023/03/19 09:58:12;;;;;;;10.88;4.82;;;;;;;;;;5072273;28;20048;-67
2023/03/19 10:00:38;;;;;;;11.90;5.32;;;;;;;;;;5071627;28;20028;-66
2023/03/19 10:03:11;;;;;;;12.68;5.63;;;;;;;;;;5071087;28;20028;-64
2023/03/19 10:05:55;;;;;;;10.85;4.22;;;;;;;;;;5072603;28;20477;-67
2023/03/19 10:08:30;;;;;;;9.10;4.47;;;;;;;;;;5068788;28;20386;-68
2023/03/19 10:11:06;;;;;;;12.32;4.55;;;;;;;;;;5072723;28;20058;-69
2023/03/19 10:13:43;;;;;;;12.05;4.60;;;;;;;;;;5072750;28;20031;-68
2023/03/19 10:16:15;;;;;;;13.18;4.57;;;;;;;;;;5072683;28;20029;-68
2023/03/19 10:18:43;;;;;;;15.23;4.93;;;;;;;;;;5073097;28;20032;-66
2023/03/19 10:21:08;;;;;;;12.70;6.30;;;;;;;;;;5072720;28;20100;-68
2023/03/19 10:23:49;;;;;;;11.73;5.33;;;;;;;;;;5072895;28;20115;-67
2023/03/19 10:26:15;;;;;;;10.55;5.00;;;;;;;;;;5070171;28;20253;-66
2023/03/19 10:28:42;;;;;;;14.50;5.35;;;;;;;;;;5072603;28;20024;-67
2023/03/19 10:31:25;;;;;;;14.10;5.03;;;;;;;;;;5071851;28;20024;-64
2023/03/19 10:33:53;;;;;;;11.93;5.00;;;;;;;;;;5072184;28;20402;-67
2023/03/19 10:36:20;;;;;;;9.02;4.97;;;;;;;;;;5071840;28;20031;-67
2023/03/19 10:38:45;;;;;;;15.02;5.35;;;;;;;;;;5072199;28;20555;-66
2023/03/19 10:41:16;;;;;;;11.85;4.90;;;;;;;;;;5072489;28;20029;-66
2023/03/19 10:43:46;;;;;;;12.52;5.13;;;;;;;;;;5072370;28;20019;-70
2023/03/19 10:46:12;;;;;;;15.25;5.22;;;;;;;;;;5070771;28;20040;-64
2023/03/19 10:48:42;;;;;;;11.75;5.40;;;;;;;;;;5071714;28;20107;-65
2023/03/19 10:51:11;;;;;;;11.38;5.00;;;;;;;;;;5071118;28;20347;-65
2023/03/19 10:53:36;;;;;;;;;;;;;;;;;;5070733;28;20419;-68
2023/03/19 10:56:19;;;;;;;21.27;5.07;;;;;;;;;;5071735;28;20396;-65
2023/03/19 10:59:04;;;;;;;18.95;4.75;;;;;;;;;;5078526;22;20036;-73
2023/03/19 11:01:33;;;;;;;10.65;4.90;;;;;;;;;;5097898;28;20020;-73
2023/03/19 11:04:00;;;;;;;13.38;4.53;;;;;;;;;;5084935;28;20024;-73
2023/03/19 11:06:35;;;;;;;9.50;4.10;;;;;;;;;;5089274;28;20207;-73
2023/03/19 11:09:11;;;;;;;8.93;4.38;;;;;;;;;;5101864;28;20028;-74
2023/03/19 11:11:46;;;;;;;9.13;3.88;;;;;;;;;;5097098;28;20028;-73
2023/03/19 11:14:17;;;;;;;8.55;3.45;;;;;;;;;;5091497;28;20032;-73
2023/03/19 11:16:50;;;;;;;9.23;4.00;;;;;;;;;;5088119;28;20111;-73
2023/03/19 11:19:18;;;;;;;8.80;4.00;;;;;;;;;;5090761;28;20027;-73
2023/03/19 11:21:52;;;;;;;11.93;4.30;;;;;;;;;;5100370;28;20038;-71
2023/03/19 11:24:18;;;;;;;8.68;3.72;;;;;;;;;;5094147;28;20012;-73
2023/03/19 11:26:52;;;;;;;7.70;3.80;;;;;;;;;;5090000;28;20031;-74
2023/03/19 11:29:17;;;;;;;15.73;4.82;;;;;;;;;;5083025;28;20099;-72
2023/03/19 11:32:06;;;;;;;10.10;4.50;;;;;;;;;;5091211;28;20583;-70
2023/03/19 11:35:00;;;;;;;8.93;4.05;;;;;;;;;;5090960;28;20317;-71
2023/03/19 11:37:45;;;;;;;10.00;4.25;;;;;;;;;;5062452;28;20032;-72
2023/03/19 11:40:10;;;;;;;9.07;3.45;;;;;;;;;;5079652;28;20031;-71
2023/03/19 11:42:44;;;;;;;10.27;4.20;;;;;;;;;;5090118;28;20024;-72
2023/03/19 11:45:12;;;;;;;8.70;3.28;;;;;;;;;;5087630;28;20024;-72
2023/03/19 11:47:56;;;;;;;5.90;2.80;;;;;;;;;;5081301;28;20032;-70
2023/03/19 11:50:33;;;;;;;8.48;3.22;;;;;;;;;;5091322;28;20028;-72
2023/03/19 11:53:09;;;;;;;7.88;3.30;;;;;;;;;;5087296;28;20020;-71
2023/03/19 11:55:38;;;;;;;9.27;2.97;;;;;;;;;;5097159;28;20034;-72
2023/03/19 11:58:18;;;;;;;8.27;3.63;;;;;;;;;;5088940;28;20106;-71
2023/03/19 12:00:51;;;;;;;9.65;3.50;;;;;;;;;;5090832;28;20016;-71
2023/03/19 12:03:36;;;;;;;8.70;3.20;;;;;;;;;;5086933;28;20509;-72
2023/03/19 12:06:11;;;;;;;10.05;3.00;;;;;;;;;;5076362;28;20020;-71
2023/03/19 12:08:42;;;;;;;10.25;3.85;;;;;;;;;;5084859;28;20015;-72
2023/03/19 12:11:22;;;;;;;6.85;3.55;;;;;;;;;;5095574;28;20522;-69
2023/03/19 12:13:58;;;;;;;6.45;3.10;;;;;;;;;;5101507;28;20106;-69
2023/03/19 12:16:35;;;;;;;10.48;3.25;;;;;;;;;;5090703;28;20113;-68
2023/03/19 12:19:17;;;;;;;7.43;2.95;;;;;;;;;;5090202;28;20024;-69
2023/03/19 12:21:43;;;;;;;5.95;2.72;;;;;;;;;;5086241;28;20507;-70
2023/03/19 12:24:16;;;;;;;7.65;2.85;;;;;;;;;;5089953;28;20020;-71
2023/03/19 12:26:47;;;;;;;6.28;2.40;;;;;;;;;;5076839;28;20024;-69
2023/03/19 12:29:26;;;;;;;8.50;2.65;;;;;;;;;;5103081;28;20462;-69
2023/03/19 12:31:57;;;;;;;9.18;2.58;;;;;;;;;;5080214;28;20039;-70
2023/03/19 12:34:22;;;;;;;11.07;2.72;;;;;;;;;;5072455;28;20178;-70
2023/03/19 12:36:53;;;;;;;21.30;2.70;;;;;;;;;;5068297;28;20032;-69
2023/03/19 12:39:21;;;;;;;7.18;2.10;;;;;;;;;;5068323;28;20265;-68
2023/03/19 12:41:47;;;;;;;8.48;2.58;;;;;;;;;;5070466;28;20050;-70
2023/03/19 12:44:12;;;;;;;7.93;2.38;;;;;;;;;;5069327;28;20031;-69
2023/03/19 12:46:42;;;;;;;6.37;2.27;;;;;;;;;;5067894;28;20017;-69
2023/03/19 12:49:14;;;;;;;6.13;2.40;;;;;;;;;;5066263;28;20341;-70
2023/03/19 12:51:41;;;;;;;3.60;1.90;;;;;;;;;;5068901;28;20725;-69
2023/03/19 12:54:12;;;;;;;3.78;1.67;;;;;;;;;;5068219;28;20560;-69
2023/03/19 12:56:37;;;;;;;7.55;2.38;;;;;;;;;;5067261;28;20067;-68
2023/03/19 12:59:10;;;;;;;8.77;3.10;;;;;;;;;;5066660;28;20111;-71
2023/03/19 13:01:39;;;;;;;6.07;2.05;;;;;;;;;;5068222;28;20020;-69
2023/03/19 13:04:13;;;;;;;3.67;1.70;;;;;;;;;;5069149;28;20032;-68
2023/03/19 13:06:46;;;;;;;5.65;1.77;;;;;;;;;;5066174;28;20059;-71
2023/03/19 13:09:26;;;;;;;6.45;2.30;;;;;;;;;;5068944;28;20032;-72
2023/03/19 13:11:56;;;;;;;4.90;1.90;;;;;;;;;;5069634;28;20479;-71
2023/03/19 13:14:28;;;;;;;6.22;1.60;;;;;;;;;;5069687;28;20043;-71
2023/03/19 13:17:05;;;;;;;3.17;1.63;;;;;;;;;;5067903;28;20036;-70
2023/03/19 13:19:47;;;;;;;5.40;2.03;;;;;;;;;;5070696;28;20043;-71
2023/03/19 13:22:14;;;;;;;4.50;1.70;;;;;;;;;;5068769;28;20103;-67
2023/03/19 13:24:43;;;;;;;2.88;1.35;;;;;;;;;;5067419;28;20008;-69
2023/03/19 13:27:11;;;;;;;3.30;1.67;;;;;;;;;;5067948;28;20028;-70
2023/03/19 13:29:51;;;;;;;4.47;1.63;;;;;;;;;;5066076;28;20067;-69
2023/03/19 13:32:29;;;;;;;4.28;2.17;;;;;;;;;;5066674;28;20788;-69
2023/03/19 13:35:13;;;;;;;5.45;2.05;;;;;;;;;;5066995;28;20116;-70
2023/03/19 13:37:41;;;;;;;7.65;2.88;;;;;;;;;;5067611;28;20074;-69
2023/03/19 13:40:26;;;;;;;6.47;2.47;;;;;;;;;;5068812;28;20056;-70
2023/03/19 13:42:56;;;;;;;4.22;2.20;;;;;;;;;;5048531;28;20033;-70
2023/03/19 13:45:25;;;;;;;6.82;2.83;;;;;;;;;;5067250;28;20038;-71
2023/03/19 13:47:51;;;;;;;10.75;3.00;;;;;;;;;;5048983;28;20400;-69
2023/03/19 13:50:30;;;;;;;13.43;3.42;;;;;;;;;;5066370;28;20123;-70
2023/03/19 13:53:14;;;;;;;8.70;2.95;;;;;;;;;;5052748;28;20098;-71
2023/03/19 13:55:45;;;;;;;4.82;2.13;;;;;;;;;;5067093;28;20024;-70
2023/03/19 13:58:47;;;;;;;6.78;2.10;;;;;;;;;;5065537;28;20032;-69
2023/03/19 14:01:01;;;;;;;7.57;3.00;;;;;;;;;;5068837;28;20036;-71
2023/03/19 14:03:28;;;;;;;5.30;2.03;;;;;;;;;;5066589;28;20623;-70
2023/03/19 14:05:55;;;;;;;6.03;2.67;;;;;;;;;;5066549;28;20028;-70
2023/03/19 14:08:25;;;;;;;6.68;2.38;;;;;;;;;;5064585;28;20028;-69
2023/03/19 14:10:58;;;;;;;6.40;2.67;;;;;;;;;;5064402;28;20060;-70
2023/03/19 14:13:46;;;;;;;7.22;2.80;;;;;;;;;;5067702;28;20485;-71
2023/03/19 14:16:11;;;;;;;7.70;2.60;;;;;;;;;;5065771;28;20040;-72
2023/03/19 14:18:39;;;;;;;9.70;2.83;;;;;;;;;;5066633;28;20025;-69
2023/03/19 14:21:05;;;;;;;7.22;3.00;;;;;;;;;;5067495;28;20292;-69
2023/03/19 14:23:31;;;;;;;5.10;2.17;;;;;;;;;;5065194;28;20062;-69
2023/03/19 14:26:05;;;;;;;3.97;2.05;;;;;;;;;;5068867;28;20042;-68
2023/03/19 14:28:36;;;;;;;6.13;2.50;;;;;;;;;;5067288;28;20032;-70
2023/03/19 14:31:02;;;;;;;6.18;2.55;;;;;;;;;;5067113;28;20043;-70
2023/03/19 14:33:42;;;;;;;7.43;2.85;;;;;;;;;;5066581;28;20028;-70
2023/03/19 14:36:11;;;;;;;6.18;2.70;;;;;;;;;;5072035;28;20020;-68